Lamoure, North Dakota
Current Conditions -  °F | °C
As of 1:15 AM on Friday 31 Oct 2014 (Local Time) from KGWR Reporting Station
Clear Clear  
Wind Chill: 16°   Ceiling: Unl
Heat Index: 25°   Visibility: 10mi
Dew Point: 18°   Wind: 8mph
Humidity: 74%   Direction: 340°NNW
Pressure: 30.58"   Gusts: NA
Location:  46.36°N, 98.29°W
Report Text: KGWR 310615Z AUTO 34007KT 10SM CLR M04/M08 A3058 RMK A01 P000
Loading
Personal Weather Stations






























Interactive Weather Map
Tropical Storm Tracking
New forecast layout! Learn more

10-Day Weather Forecast

Advertisements
Track Severe Weather on mobile